Tangier, Indiana
Current Conditions -  °F | °C
As of 12:55 PM on Friday 31 Oct 2014 (Local Time) from KDNV Reporting Station
Light Rain Light Rain  
Wind Chill: 29°   Ceiling: 2600
Heat Index: 39°   Visibility: 10mi
Dew Point: 30°   Wind: 17mph
Humidity: 72%   Direction: 340°NNW
Pressure: 30.08"   Gusts: 31mph
Location:  39.9707°N, 87.3162°W
Report Text: KDNV 311655Z AUTO 34015G27KT 10SM -RA BKN026 OVC032 04/M01 A3008 RMK AO2 T00371009
Loading
Personal Weather Stations






























Interactive Weather Map
Tropical Storm Tracking
New forecast layout! Learn more

10-Day Weather Forecast

Advertisements
Track Severe Weather on mobile